To NAV CANADA Home Page Login to a new session Search on AWWS site Feedback and Comments Disclaimer Vers la page française équivalente Tips FAQ What's new on the site To the Forecasts and Observations / NOTAM section To "File a Flight Plan" website Publications and other links Update of the User's profile FIC Telephone Numbers My Weather Data Folder Route Weather Data Regional Weather Data Local Weather Data To the Forecasts and Observations / NOTAM section
Request Generated 04/30/2017 at 05:09:02 UTC . Weather information available at that time is displayed.

METAR/TAF

TORONTO/BILLY BISHOP TORONTO CITY AIRPORT/ON    (show WxCam)

METAR CYTZ 300500Z AUTO 01011G16KT 9SM SCT100 09/M01 A3024 RMK
SLP244=
METAR CYTZ 300400Z AUTO 34010G16KT 9SM BKN110 BKN130 09/M02 A3026 RMK
PRESRR SLP252=
METAR CYTZ 300300Z AUTO 34009G16KT 9SM BKN220 09/M02 A3024 RMK
SLP245=

TAF AMD CYTZ 300313Z 3003/0102 34007G17KT P6SM BKN220
FM300800 36012G22KT P6SM BKN080
FM301100 07015G25KT P6SM -SHRA OVC050 PROB30 3011/3015 2SM +TSRA
BR BKN012CB
FM301500 07015G25KT 5SM -SHRA BR OVC020
FM301800 09015G25KT P6SM OVC008
RMK FCST BASED ON AUTO OBS. NXT FCST BY 300800Z=
Your time UTC time
Weather data provided by Environment Canada and NAV CANADA